createdAt,value
2023-05-16T00:01:30.589Z,9.80
2023-05-16T00:06:33.655Z,9.70
2023-05-16T00:11:36.313Z,9.90
2023-05-16T00:16:39.401Z,10.20
2023-05-16T00:21:42.186Z,10.70
2023-05-16T00:26:45.146Z,10.70
2023-05-16T00:31:47.967Z,10.80
2023-05-16T00:36:51.246Z,10.90
2023-05-16T00:41:54.494Z,11.20
2023-05-16T00:46:57.665Z,11.10
2023-05-16T00:52:01.262Z,11.10
2023-05-16T00:57:05.123Z,11.20
2023-05-16T01:02:07.839Z,11.20
2023-05-16T01:07:10.773Z,11.20
2023-05-16T01:12:38.664Z,11.10
2023-05-16T01:18:01.400Z,11.10
2023-05-16T01:23:23.957Z,10.90
2023-05-16T01:28:27.638Z,11.10
2023-05-16T01:33:30.706Z,11.00
2023-05-16T01:39:04.683Z,10.90
2023-05-16T01:44:18.230Z,10.90
2023-05-16T01:49:49.947Z,10.70
2023-05-16T01:54:57.990Z,10.60
2023-05-16T02:00:01.116Z,10.50
2023-05-16T02:05:04.221Z,10.50
2023-05-16T02:10:07.677Z,10.50
2023-05-16T02:15:11.443Z,10.50
2023-05-16T02:20:15.252Z,10.40
2023-05-16T02:25:18.121Z,10.50
2023-05-16T02:30:20.901Z,10.40
2023-05-16T02:35:23.887Z,10.40
2023-05-16T02:40:26.816Z,10.40
2023-05-16T02:45:29.626Z,10.30
2023-05-16T02:50:32.482Z,10.10
2023-05-16T02:55:35.147Z,9.80
2023-05-16T03:00:37.845Z,9.70
2023-05-16T03:05:40.793Z,9.60
2023-05-16T03:10:43.509Z,9.50
2023-05-16T03:15:46.699Z,9.40
2023-05-16T03:20:49.392Z,9.50
2023-05-16T03:25:52.132Z,9.50
2023-05-16T03:30:56.781Z,9.40
2023-05-16T03:35:59.746Z,9.40
2023-05-16T03:41:02.854Z,9.50
2023-05-16T03:46:05.773Z,9.60
2023-05-16T03:51:08.671Z,9.90
2023-05-16T03:56:11.361Z,10.00
2023-05-16T04:01:14.308Z,10.10
2023-05-16T04:06:18.090Z,10.20
2023-05-16T04:11:21.676Z,10.30
2023-05-16T04:16:24.571Z,10.30
2023-05-16T04:21:27.307Z,10.50
2023-05-16T04:26:30.649Z,10.70
2023-05-16T04:31:33.426Z,10.90
2023-05-16T04:36:36.305Z,11.10
2023-05-16T04:41:39.110Z,11.40
2023-05-16T04:46:42.083Z,11.70
2023-05-16T04:51:45.304Z,12.10
2023-05-16T04:56:48.215Z,12.20
2023-05-16T05:01:51.511Z,12.50
2023-05-16T05:06:54.615Z,12.80
2023-05-16T05:11:57.688Z,13.10
2023-05-16T05:17:00.784Z,13.50
2023-05-16T05:22:03.999Z,13.90
2023-05-16T05:27:07.072Z,14.50
2023-05-16T05:32:10.011Z,14.90
2023-05-16T05:37:13.116Z,15.10
2023-05-16T05:42:16.205Z,15.40
2023-05-16T05:47:19.672Z,15.80
2023-05-16T05:52:22.953Z,16.00
2023-05-16T05:57:26.270Z,16.10
2023-05-16T06:02:29.748Z,16.40
2023-05-16T06:07:32.710Z,16.50
2023-05-16T06:12:36.251Z,16.00
2023-05-16T06:17:39.274Z,16.50
2023-05-16T06:22:42.158Z,16.60
2023-05-16T06:27:45.091Z,16.80
2023-05-16T06:32:47.906Z,16.70
2023-05-16T06:37:50.916Z,17.00
2023-05-16T06:42:53.886Z,17.30
2023-05-16T06:47:57.639Z,17.40
2023-05-16T06:53:00.971Z,17.80
2023-05-16T06:58:03.910Z,18.00
2023-05-16T07:03:07.085Z,18.00
2023-05-16T07:08:13.089Z,18.20
2023-05-16T07:13:16.095Z,17.70
2023-05-16T07:18:19.259Z,17.80
2023-05-16T07:23:22.640Z,18.40
2023-05-16T07:28:25.645Z,18.90
2023-05-16T07:33:28.724Z,19.00
2023-05-16T07:38:31.826Z,19.10
2023-05-16T07:43:37.296Z,19.40
2023-05-16T07:48:40.189Z,19.60
2023-05-16T07:53:43.291Z,19.70
2023-05-16T07:58:46.538Z,19.90
2023-05-16T08:03:49.667Z,20.50
2023-05-16T08:08:52.594Z,20.30
2023-05-16T08:13:55.386Z,20.30
2023-05-16T08:18:58.532Z,20.20
2023-05-16T08:24:01.769Z,20.30
2023-05-16T08:29:05.274Z,20.60
2023-05-16T08:34:09.725Z,21.00
2023-05-16T08:39:13.102Z,20.90
2023-05-16T08:44:21.793Z,22.00
2023-05-16T08:49:29.705Z,22.40
2023-05-16T08:54:33.423Z,22.40
2023-05-16T08:59:36.608Z,21.10
2023-05-16T09:04:41.681Z,22.30
2023-05-16T09:09:44.520Z,22.50
2023-05-16T09:14:47.840Z,22.60
2023-05-16T09:19:53.281Z,23.20
2023-05-16T09:24:56.274Z,23.00
2023-05-16T09:30:00.060Z,22.70
2023-05-16T09:35:02.971Z,23.20
2023-05-16T09:40:06.718Z,22.70
2023-05-16T09:45:13.265Z,22.90
2023-05-16T09:50:17.504Z,22.60
2023-05-16T09:55:20.415Z,23.60
2023-05-16T10:00:23.371Z,23.00
2023-05-16T10:05:28.158Z,23.00
2023-05-16T10:10:32.228Z,22.60
2023-05-16T10:15:38.571Z,23.10
2023-05-16T10:20:44.457Z,23.60
2023-05-16T10:25:50.475Z,24.00
2023-05-16T10:30:55.098Z,23.70
2023-05-16T10:35:58.852Z,24.10
2023-05-16T10:41:02.370Z,23.90
2023-05-16T10:46:10.181Z,23.40
2023-05-16T10:51:34.215Z,23.10
2023-05-16T10:56:37.737Z,22.60
2023-05-16T11:01:41.643Z,22.80
2023-05-16T11:06:47.014Z,21.80
2023-05-16T11:11:53.189Z,22.10
2023-05-16T11:17:09.804Z,22.20
2023-05-16T11:22:25.730Z,22.00
2023-05-16T11:27:34.381Z,21.60
2023-05-16T11:32:41.429Z,21.60
2023-05-16T11:37:45.417Z,21.60
2023-05-16T11:42:49.035Z,21.20
2023-05-16T11:47:52.336Z,20.90
2023-05-16T11:52:57.722Z,20.50
2023-05-16T11:58:00.731Z,20.60
2023-05-16T12:03:06.382Z,20.30
2023-05-16T12:08:11.441Z,20.20
2023-05-16T12:13:14.578Z,20.30
2023-05-16T12:18:18.243Z,20.40
2023-05-16T12:23:21.116Z,20.20
2023-05-16T12:28:23.883Z,19.90
2023-05-16T12:33:27.808Z,19.70
2023-05-16T12:38:30.700Z,19.60
2023-05-16T12:43:33.493Z,19.70
2023-05-16T12:48:36.235Z,19.50
2023-05-16T12:54:01.329Z,19.50
2023-05-16T12:59:14.895Z,19.50
2023-05-16T13:04:20.315Z,19.50
2023-05-16T13:09:24.063Z,19.50
2023-05-16T13:14:27.482Z,19.30
2023-05-16T13:19:32.058Z,19.20
2023-05-16T13:24:34.780Z,19.20
2023-05-16T13:29:37.769Z,18.70
2023-05-16T13:34:40.755Z,18.70
2023-05-16T13:39:43.646Z,18.80
2023-05-16T13:44:46.584Z,18.50
2023-05-16T13:49:49.377Z,18.60
2023-05-16T13:54:52.516Z,19.00
2023-05-16T14:05:02.003Z,18.50
2023-05-16T14:10:07.108Z,18.50
2023-05-16T14:15:10.550Z,18.40
2023-05-16T14:20:15.743Z,18.40
2023-05-16T14:25:18.680Z,18.40
2023-05-16T14:30:21.461Z,18.20
2023-05-16T14:35:24.296Z,18.10
2023-05-16T14:40:27.007Z,18.20
2023-05-16T14:45:30.008Z,18.10
2023-05-16T14:50:32.947Z,17.80
2023-05-16T14:55:35.828Z,17.70
2023-05-16T15:00:38.706Z,17.30
2023-05-16T15:05:41.850Z,17.20
2023-05-16T15:10:44.860Z,17.10
2023-05-16T15:15:47.727Z,17.20
2023-05-16T15:20:52.600Z,16.90
2023-05-16T15:25:55.550Z,16.80
2023-05-16T15:30:58.366Z,16.70
2023-05-16T15:36:01.729Z,16.50
2023-05-16T15:46:16.396Z,16.20
2023-05-16T15:51:19.727Z,15.90
2023-05-16T15:56:22.573Z,15.70
2023-05-16T16:01:25.516Z,15.60
2023-05-16T16:06:28.377Z,15.70
2023-05-16T16:11:31.486Z,15.70
2023-05-16T16:16:34.670Z,15.60
2023-05-16T16:21:37.613Z,15.50
2023-05-16T16:26:41.179Z,15.50
2023-05-16T16:31:44.125Z,15.40
2023-05-16T16:36:48.518Z,15.40
2023-05-16T16:41:51.330Z,15.30
2023-05-16T16:46:54.389Z,15.30
2023-05-16T16:51:58.159Z,15.20
2023-05-16T16:57:01.379Z,15.10
2023-05-16T17:02:04.246Z,15.10
2023-05-16T17:07:07.931Z,15.00
2023-05-16T17:12:19.502Z,14.80
2023-05-16T17:17:24.140Z,14.70
2023-05-16T17:22:27.040Z,14.50
2023-05-16T17:27:29.845Z,14.40
2023-05-16T17:32:32.802Z,14.30
2023-05-16T17:37:35.670Z,14.20
2023-05-16T17:42:39.015Z,14.10
2023-05-16T17:47:42.468Z,14.00
2023-05-16T17:52:45.744Z,13.90
2023-05-16T17:57:48.574Z,13.90
2023-05-16T18:02:52.519Z,13.80
2023-05-16T18:07:55.310Z,13.70
2023-05-16T18:12:58.229Z,13.70
2023-05-16T18:18:01.625Z,13.60
2023-05-16T18:23:04.392Z,13.60
2023-05-16T18:28:08.010Z,13.60
2023-05-16T18:33:11.062Z,13.40
2023-05-16T18:38:24.412Z,13.50
2023-05-16T18:43:37.538Z,13.50
2023-05-16T18:48:40.716Z,13.40
2023-05-16T18:53:43.566Z,13.40
2023-05-16T18:58:47.097Z,13.30
2023-05-16T19:03:50.347Z,13.30
2023-05-16T19:08:53.445Z,13.30
2023-05-16T19:13:56.536Z,13.30
2023-05-16T19:18:59.648Z,13.20
2023-05-16T19:24:03.409Z,13.20
2023-05-16T19:29:06.468Z,13.20
2023-05-16T19:34:09.585Z,13.20
2023-05-16T19:39:12.567Z,13.30
2023-05-16T19:44:15.412Z,13.30
2023-05-16T19:49:20.219Z,13.20
2023-05-16T19:54:23.508Z,13.30
2023-05-16T19:59:26.620Z,13.30
2023-05-16T20:04:29.742Z,13.40
2023-05-16T20:09:32.636Z,13.30
2023-05-16T20:14:35.572Z,13.30
2023-05-16T20:19:44.116Z,13.40
2023-05-16T20:24:47.172Z,13.30
2023-05-16T20:29:50.002Z,13.30
2023-05-16T20:34:52.876Z,13.40
2023-05-16T20:39:56.146Z,13.30
2023-05-16T20:44:58.996Z,13.30
2023-05-16T20:50:01.949Z,13.20
2023-05-16T20:55:05.333Z,13.20
2023-05-16T21:00:08.919Z,13.20
2023-05-16T21:05:35.023Z,13.20
2023-05-16T21:10:34.845Z,13.20
2023-05-16T21:15:38.743Z,13.20
2023-05-16T21:20:41.812Z,13.20
2023-05-16T21:25:44.874Z,13.10
2023-05-16T21:30:47.849Z,13.00
2023-05-16T21:35:50.597Z,13.10
2023-05-16T21:40:54.004Z,13.10
2023-05-16T21:45:56.728Z,13.10
2023-05-16T21:50:59.647Z,13.10
2023-05-16T21:56:02.434Z,13.10
2023-05-16T22:01:11.571Z,13.10
2023-05-16T22:06:17.353Z,13.10
2023-05-16T22:11:20.119Z,13.10
2023-05-16T22:16:22.938Z,13.10
2023-05-16T22:21:25.993Z,13.10
2023-05-16T22:26:28.980Z,13.20
2023-05-16T22:31:31.847Z,11.50
2023-05-16T22:36:34.663Z,13.20
2023-05-16T22:41:37.652Z,13.30
2023-05-16T22:46:40.637Z,13.30
2023-05-16T22:51:43.384Z,13.30
2023-05-16T22:56:46.140Z,13.30
2023-05-16T23:01:48.953Z,13.30
2023-05-16T23:06:51.767Z,13.30
2023-05-16T23:16:57.954Z,13.30
2023-05-16T23:22:00.837Z,13.30
2023-05-16T23:27:03.820Z,13.20
2023-05-16T23:32:06.954Z,13.20
2023-05-16T23:37:09.850Z,13.20
2023-05-16T23:42:12.867Z,13.20
